• Join FlightAware (Why Join?)
  • Login
  • US Flag 
05:07PM EDT


 

Airport Tracker/Info


-or-


 

Live Flight TrackerFlight Track Log ✈ BJS621 ✈ 07-Jul-2013 ✈ KAND - KPWK

Flight Track Log - Related Links

Times and Time Zones

All times are in EDT time to prevent confusion due to time zone crossing. See the BJS621 flight status page for this flight to view local times or setup timezone preferences in your user account.

Time Position Orientation Groundspeed Altitude Reporting Facility
EDT Latitude Longitude Course Direction KTS MPH feet Rate Location/Type
12:30PM 34.5092 -82.7028 326° Northwest 255 293 5,900  Level Atlanta Center
12:31PM 34.5681 -82.7497 327° Northwest 277 319 8,200 2,040 Climbing Atlanta Center
12:32PM 34.6375 -82.8092 325° Northwest 295 339 10,000 900 Climbing Atlanta Center
12:33PM 34.7050 -82.8764 321° Northwest 308 354 10,000 1,800 Level Atlanta Center
12:35PM 35.0361 -83.1523 326° Northwest  Level FlightAware Approximate
12:35PM 34.8628 -83.0236 323° Northwest 349 402 15,500  Level Atlanta Center
12:36PM 34.9531 -83.0986 326° Northwest 364 419 19,200 3,000 Climbing Atlanta Center
12:37PM 35.0433 -83.1761 325° Northwest 375 432 21,600 1,860 Climbing Atlanta Center
12:38PM 35.1442 -83.2589 326° Northwest 397 457 23,000 1,560 Climbing Atlanta Center
12:39PM 35.2406 -83.3369 327° Northwest 448 516 24,800 2,340 Climbing Atlanta Center
12:40PM 35.3433 -83.4225 326° Northwest 453 521 27,700 2,400 Climbing Atlanta Center
12:41PM 35.4458 -83.5086 326° Northwest 453 521 29,600 1,140 Climbing Atlanta Center
12:42PM 35.5506 -83.5972 325° Northwest 453 521 30,000 180 Climbing Atlanta Center
12:43PM 35.6572 -83.6886 325° Northwest 459 528 30,000  Level Atlanta Center
12:44PM 35.7658 -83.7778 326° Northwest 466 536 30,100  Climbing Atlanta Center
12:45PM 35.8706 -83.8669 325° Northwest 466 536 30,000 -60 Descending Atlanta Center
12:46PM 35.9872 -83.9567 328° Northwest 479 551 30,000 780 Level Atlanta Center
12:47PM 36.1000 -84.0414 329° Northwest 484 557 31,600 1,920 Climbing Atlanta Center
12:47PM 36.1650 -84.0886 330° Northwest 478 550 33,000 2,160 Climbing Indianapolis Center
12:48PM 36.2742 -84.1686 329° Northwest 466 536 35,000 1,860 Climbing Indianapolis Center
12:49PM 36.3817 -84.2497 329° Northwest 458 527 36,900 1,380 Climbing Indianapolis Center
12:50PM 36.4881 -84.3306 329° Northwest 452 520 37,900 480 Climbing Indianapolis Center
12:51PM 36.6022 -84.4169 329° Northwest 459 528 38,000  Climbing Indianapolis Center
12:53PM 36.7283 -84.5128 329° Northwest 459 528 38,000  Level Indianapolis Center
12:54PM 36.8356 -84.5944 329° Northwest 454 522 38,000  Level Indianapolis Center
12:55PM 36.9431 -84.6758 329° Northwest 452 520 38,000 480 Level Indianapolis Center
12:56PM 37.0533 -84.7594 329° Northwest 451 519 39,000 960 Climbing Indianapolis Center
12:57PM 37.1589 -84.8417 328° Northwest 445 512 40,000 480 Climbing Indianapolis Center
12:58PM 37.2647 -84.9236 328° Northwest 445 512 40,000  Level Indianapolis Center
12:59PM 37.3903 -85.0192 329° Northwest 448 516 40,000  Level Indianapolis Center
01:00PM 37.4939 -85.1006 328° Northwest 440 506 40,000  Level Indianapolis Center
01:01PM 37.5983 -85.1811 329° Northwest 439 505 40,000  Level Indianapolis Center
01:02PM 37.7025 -85.2631 328° Northwest 440 506 40,000  Level Indianapolis Center
01:03PM 37.8064 -85.3456 328° Northwest 440 506 40,000  Level Indianapolis Center
01:04PM 37.9106 -85.4256 329° Northwest 448 516 40,000  Level Indianapolis Center
01:05PM 38.0167 -85.5067 329° Northwest 445 512 40,000 -1,080 Level Indianapolis Center
01:06PM 38.1511 -85.5864 335° Northwest 444 511 37,900 -2,280 Descending Indianapolis Center
01:07PM 38.2664 -85.6522 336° Northwest 449 517 35,400 -2,280 Descending Indianapolis Center
01:08PM 38.3756 -85.7181 335° Northwest 436 502 33,200 -1,680 Descending Indianapolis Center
01:09PM 38.4856 -85.7847 335° Northwest 438 504 32,000 -600 Descending Indianapolis Center
01:10PM 38.5975 -85.8525 335° Northwest 443 510 32,000  Level Indianapolis Center
01:11PM 38.7117 -85.9203 335° Northwest 452 520 32,000 -660 Level Indianapolis Center
01:12PM 38.8425 -86.0003 335° Northwest 435 501 30,700 -1,440 Descending Indianapolis Center
01:13PM 38.9481 -86.0636 335° Northwest 430 495 29,100 -1,320 Descending Indianapolis Center
01:14PM 39.0581 -86.1311 335° Northwest 436 502 28,100 -540 Descending Indianapolis Center
01:15PM 39.1683 -86.1992 334° Northwest 440 506 28,000 -60 Descending Indianapolis Center
01:16PM 39.2764 -86.2650 335° Northwest 433 498 28,000  Level Indianapolis Center
01:17PM 39.3869 -86.3325 335° Northwest 435 501 28,000  Level Indianapolis Center
01:18PM 39.5000 -86.4031 334° Northwest 446 513 28,000 -60 Level Indianapolis Center
01:19PM 39.6369 -86.4883 334° Northwest 448 516 27,900 -540 Descending Indianapolis Center
01:20PM 39.7494 -86.5589 334° Northwest 443 510 26,900 -960 Descending Indianapolis Center
01:21PM 39.8603 -86.6281 334° Northwest 438 504 26,000 -480 Descending Indianapolis Center
01:22PM 39.9706 -86.6969 334° Northwest 438 504 26,000  Level Indianapolis Center
01:23PM 40.0822 -86.7678 334° Northwest 444 511 26,000  Level Indianapolis Center
01:24PM 40.1492 -86.8103 334° Northwest 445 512 26,000 -960 Level Chicago Center
01:25PM 40.2600 -86.8797 334° Northwest 443 510 24,500 -1,500 Descending Chicago Center
01:26PM 40.3697 -86.9494 334° Northwest 439 505 22,900 -1,860 Descending Chicago Center
01:27PM 40.5014 -87.0175 339° North 431 496 20,700 -2,040 Descending Chicago Center
01:28PM 40.6150 -87.0419 351° North 417 480 18,800 -2,100 Descending Chicago Center
01:29PM 40.7278 -87.0686 350° North 389 448 16,400 -2,280 Descending Chicago Center
01:30PM 40.8297 -87.0956 349° North 379 436 14,100 -2,220 Descending Chicago Center
01:31PM 40.9317 -87.1181 351° North 375 432 11,900 -1,980 Descending Chicago Center
01:32PM 41.0253 -87.1428 349° North 353 406 10,100 -1,620 Descending Chicago Center
01:33PM 41.1017 -87.1603 350° North 287 330 8,600 -1,800 Descending Chicago Center
01:34PM 41.1886 -87.1833 349° North 272 313 6,500 -1,740 Descending Chicago Center
01:35PM 41.2631 -87.2025 349° North 274 315 5,000 -1,200 Descending Chicago Center
01:37PM 41.3356 -87.2200 350° North 271 312 4,000 -540 Descending Chicago Center
01:38PM 41.4078 -87.2381 349° North 267 307 4,000  Level Chicago Center
01:39PM 41.4806 -87.2589 348° North 269 310 4,000  Level Chicago Center
01:40PM 41.5669 -87.2833 348° North 269 310 4,000 -120 Level Chicago Center
01:41PM 41.6394 -87.3042 348° North 269 310 3,800 -540 Descending Chicago Center
01:42PM 41.7064 -87.3217 349° North 262 302 3,000 -420 Descending Chicago Center
01:43PM 41.7647 -87.3378 348° North 242 278 3,000  Level Chicago Center
01:44PM 41.8339 -87.3575 348° North 224 258 3,000  Level Chicago Center
01:45PM 41.8981 -87.3753 348° North 226 260 3,000  Level Chicago Center
01:46PM 41.9739 -87.3978 348° North 252 290 3,000  Level Chicago Center
01:47PM 42.0403 -87.4464 331° Northwest 274 315 3,000  Level Chicago Center
01:48PM 42.0969 -87.5144 318° Northwest 276 318 3,000  Level Chicago Center
01:49PM 42.1625 -87.5911 319° Northwest 270 311 3,000  Level Chicago Center
01:50PM 42.2108 -87.6622 313° West 268 308 3,000 -300 Level Chicago Center
01:51PM 42.2419 -87.7519 295° West 272 313 2,500 -540 Descending Chicago Center
01:52PM 42.2253 -87.8425 256° West 262 302 2,000 -300 Descending Chicago Center
01:53PM 42.1983 -87.9122 242° Southwest 239 275 2,000 -180 Level Chicago Center
01:54PM 42.1533 -87.9356 201° Southwest 212 244 1,700 -300 Descending Chicago Center
01:56PM 42.1143 -87.9015 169° South  Level Estimated